Time;durP1;ratioP1;P1;durP2;ratioP2;P2;SDS_P1;SDS_P2;PMS_P1;PMS_P2;Temp;Humidity;BMP_temperature;BMP_pressure;BME280_temperature;BME280_humidity;BME280_pressure;Samples;Min_cycle;Max_cycle;Signal;HPM_P1;HPM_P2
2022/07/12 00:00:46;;;;;;;1.70;1.50;;;17.20;99.90;;;;;;10426920;28;20945;-68
2022/07/12 00:05:46;;;;;;;4.97;1.70;;;17.20;99.90;;;;;;10436037;28;20237;-68
2022/07/12 00:10:47;;;;;;;3.67;1.70;;;17.10;99.90;;;;;;10434314;28;20645;-69
2022/07/12 00:15:47;;;;;;;1.90;1.60;;;17.10;99.90;;;;;;10439895;28;20702;-69
2022/07/12 00:20:49;;;;;;;1.50;1.40;;;16.90;99.90;;;;;;10427978;28;20229;-69
2022/07/12 00:25:49;;;;;;;2.23;1.50;;;16.90;99.90;;;;;;10431717;28;20243;-69
2022/07/12 00:30:50;;;;;;;2.63;1.60;;;16.80;99.90;;;;;;10436572;28;20306;-70
2022/07/12 00:35:50;;;;;;;1.40;1.30;;;16.80;99.90;;;;;;10429953;28;20646;-68
2022/07/12 00:40:51;;;;;;;1.63;1.53;;;16.70;99.90;;;;;;10436289;28;20231;-69
2022/07/12 00:45:52;;;;;;;1.80;1.27;;;16.60;99.90;;;;;;10432362;28;20899;-69
2022/07/12 00:50:52;;;;;;;1.97;1.50;;;16.60;99.90;;;;;;10426314;28;20305;-69
2022/07/12 00:55:57;;;;;;;1.60;1.50;;;16.50;99.90;;;;;;10427084;28;20649;-69
2022/07/12 01:00:58;;;;;;;1.60;1.50;;;16.50;99.90;;;;;;10432842;28;20726;-68
2022/07/12 01:05:59;;;;;;;1.93;1.60;;;16.40;99.90;;;;;;10428296;28;20585;-68
2022/07/12 01:11:03;;;;;;;1.63;1.53;;;16.40;99.90;;;;;;10426423;28;20233;-69
2022/07/12 01:16:05;;;;;;;2.00;1.90;;;16.40;99.90;;;;;;10436726;28;20567;-69
2022/07/12 01:21:08;;;;;;;2.73;2.00;;;16.40;99.90;;;;;;10433040;28;20615;-68
2022/07/12 01:26:09;;;;;;;2.10;1.73;;;16.40;99.90;;;;;;10428119;28;20303;-68
2022/07/12 01:31:09;;;;;;;2.10;1.90;;;16.30;99.90;;;;;;10432040;28;20779;-69
2022/07/12 01:36:10;;;;;;;2.10;2.00;;;16.30;99.90;;;;;;10427690;28;20636;-69
2022/07/12 01:41:11;;;;;;;2.30;2.07;;;16.30;99.90;;;;;;10433237;28;20222;-68
2022/07/12 01:46:11;;;;;;;1.57;1.47;;;16.20;99.90;;;;;;10427074;28;20706;-68
2022/07/12 01:51:12;;;;;;;2.20;1.80;;;16.10;99.90;;;;;;10431375;28;20262;-69
2022/07/12 01:56:14;;;;;;;2.23;1.83;;;16.10;99.90;;;;;;10434260;28;20769;-68
2022/07/12 02:01:15;;;;;;;2.47;2.20;;;16.00;99.90;;;;;;10425102;28;20243;-69
2022/07/12 02:06:16;;;;;;;2.20;1.93;;;16.00;99.90;;;;;;10429539;28;20215;-68
2022/07/12 02:11:16;;;;;;;1.90;1.70;;;15.90;99.90;;;;;;10432990;28;20233;-68
2022/07/12 02:16:17;;;;;;;2.80;2.07;;;15.90;99.90;;;;;;10428013;28;20226;-68
2022/07/12 02:21:18;;;;;;;2.20;2.03;;;15.80;99.90;;;;;;10422373;28;20229;-68
2022/07/12 02:26:18;;;;;;;3.27;2.17;;;15.80;99.90;;;;;;10424472;28;20243;-68
2022/07/12 02:31:19;;;;;;;2.10;2.00;;;15.80;99.90;;;;;;10436395;28;20324;-68
2022/07/12 02:36:20;;;;;;;2.10;1.90;;;15.90;99.90;;;;;;10424757;28;20214;-69
2022/07/12 02:41:21;;;;;;;1.47;1.37;;;15.80;99.90;;;;;;10437598;28;20315;-68
2022/07/12 02:46:21;;;;;;;1.83;1.73;;;15.80;99.90;;;;;;10430381;28;20220;-68
2022/07/12 02:51:25;;;;;;;1.73;1.63;;;15.80;99.90;;;;;;10427613;28;20221;-67
2022/07/12 02:56:26;;;;;;;2.03;1.83;;;15.70;99.90;;;;;;10428782;28;20244;-68
2022/07/12 03:01:27;;;;;;;1.83;1.73;;;15.70;99.90;;;;;;10439800;28;20768;-67
2022/07/12 03:06:27;;;;;;;2.00;1.90;;;15.70;99.90;;;;;;10429201;28;20287;-67
2022/07/12 03:11:28;;;;;;;1.60;1.50;;;15.60;99.90;;;;;;10430062;28;20227;-68
2022/07/12 03:16:29;;;;;;;1.97;1.80;;;15.60;99.90;;;;;;10432602;28;20294;-68
2022/07/12 03:21:30;;;;;;;2.30;2.10;;;15.50;99.90;;;;;;10436409;28;20230;-68
2022/07/12 03:26:30;;;;;;;4.30;2.23;;;15.40;99.90;;;;;;10443313;28;20221;-68
2022/07/12 03:31:31;;;;;;;2.20;2.00;;;15.30;99.90;;;;;;10434089;28;20225;-68
2022/07/12 03:36:32;;;;;;;2.20;2.00;;;15.30;99.90;;;;;;10435111;28;20313;-69
2022/07/12 03:41:32;;;;;;;3.23;2.10;;;15.30;99.90;;;;;;10434907;28;20237;-68
2022/07/12 03:46:33;;;;;;;2.50;2.30;;;15.30;99.90;;;;;;10439719;28;20638;-68
2022/07/12 03:51:33;;;;;;;2.37;2.00;;;15.30;99.90;;;;;;10451490;28;20231;-68
2022/07/12 04:01:53;;;;;;;4.30;2.20;;;15.40;99.90;;;;;;10440957;28;20303;-68
2022/07/12 04:06:54;;;;;;;2.07;1.90;;;15.40;99.90;;;;;;10435146;28;20311;-68
2022/07/12 04:11:55;;;;;;;3.30;1.83;;;15.90;99.90;;;;;;10429835;28;20843;-68
2022/07/12 04:16:56;;;;;;;2.77;2.20;;;16.00;99.90;;;;;;10434322;28;20769;-68
2022/07/12 04:21:58;;;;;;;2.37;2.17;;;16.00;99.90;;;;;;10441420;28;20304;-68
2022/07/12 04:27:02;;;;;;;2.77;2.40;;;16.00;99.90;;;;;;10426805;28;20224;-69
2022/07/12 04:32:03;;;;;;;5.70;5.00;;;16.20;99.90;;;;;;10453171;28;20299;-69
2022/07/12 04:37:03;;;;;;;2.80;2.37;;;16.20;99.90;;;;;;10436685;28;20304;-69
2022/07/12 04:42:05;;;;;;;2.10;2.00;;;16.20;99.90;;;;;;10432932;28;20622;-69
2022/07/12 04:47:05;;;;;;;2.37;2.23;;;16.50;99.90;;;;;;10424784;28;20249;-68
2022/07/12 04:52:06;;;;;;;3.33;3.03;;;17.20;99.90;;;;;;10427964;28;20229;-68
2022/07/12 04:57:06;;;;;;;2.80;2.60;;;17.80;99.90;;;;;;10432403;28;20625;-68
2022/07/12 05:02:07;;;;;;;2.97;2.63;;;17.80;99.90;;;;;;10427630;28;20249;-68
2022/07/12 05:07:08;;;;;;;7.00;3.40;;;17.90;99.90;;;;;;10428546;28;20229;-69
2022/07/12 05:12:09;;;;;;;3.70;3.17;;;19.60;99.90;;;;;;10432801;28;20234;-70
2022/07/12 05:17:10;;;;;;;4.83;3.13;;;22.10;99.90;;;;;;10443347;28;20684;-68
2022/07/12 05:22:10;;;;;;;6.70;3.00;;;23.90;99.90;;;;;;10432561;28;20220;-68
2022/07/12 05:27:11;;;;;;;4.73;2.27;;;24.20;99.90;;;;;;10426560;28;20280;-69
2022/07/12 05:32:14;;;;;;;2.67;2.47;;;25.00;99.90;;;;;;10429092;28;20219;-68
2022/07/12 05:37:15;;;;;;;2.67;2.17;;;26.10;96.20;;;;;;10425947;28;20222;-73
2022/07/12 05:42:16;;;;;;;3.10;2.37;;;26.50;95.00;;;;;;10436326;28;20275;-69
2022/07/12 05:47:17;;;;;;;3.73;2.63;;;26.30;92.80;;;;;;10430937;28;20784;-69
2022/07/12 05:57:36;;;;;;;2.33;1.87;;;27.40;90.40;;;;;;10437058;28;20203;-69
2022/07/12 06:02:37;;;;;;;3.27;2.10;;;29.10;83.40;;;;;;10430280;28;20605;-69
2022/07/12 06:07:38;;;;;;;2.27;2.00;;;28.70;78.70;;;;;;10429217;28;20230;-69
2022/07/12 06:12:38;;;;;;;2.27;2.00;;;29.00;76.10;;;;;;10429261;28;20600;-67
2022/07/12 06:17:39;;;;;;;2.47;1.97;;;28.40;77.70;;;;;;10421630;28;20701;-68
2022/07/12 06:22:40;;;;;;;5.03;2.20;;;28.30;77.30;;;;;;10422614;28;20225;-68
2022/07/12 06:27:40;;;;;;;2.17;1.90;;;28.50;76.80;;;;;;10436298;28;20219;-68
2022/07/12 06:32:41;;;;;;;2.70;2.20;;;29.20;74.80;;;;;;10430028;28;20427;-68
2022/07/12 06:37:41;;;;;;;1.60;1.50;;;29.50;72.40;;;;;;10426896;28;20218;-68
2022/07/12 06:42:43;;;;;;;6.07;2.10;;;31.20;67.30;;;;;;10428924;28;20706;-69
2022/07/12 06:47:44;;;;;;;2.23;2.00;;;31.90;61.20;;;;;;10422685;28;20218;-70
2022/07/12 06:52:48;;;;;;;2.83;1.60;;;30.90;61.90;;;;;;10434897;28;20236;-68
2022/07/12 06:57:49;;;;;;;2.03;1.87;;;31.10;62.10;;;;;;10434689;28;20732;-67
2022/07/12 07:02:50;;;;;;;2.07;1.57;;;32.80;57.30;;;;;;10429851;28;20267;-68
2022/07/12 07:07:51;;;;;;;2.97;1.90;;;32.20;57.00;;;;;;10433702;28;20895;-69
2022/07/12 07:12:51;;;;;;;1.57;1.47;;;31.50;58.30;;;;;;10430390;28;20253;-69
2022/07/12 07:17:52;;;;;;;3.77;1.20;;;31.80;58.00;;;;;;10432617;28;20216;-69
2022/07/12 07:22:53;;;;;;;3.00;1.40;;;33.10;55.00;;;;;;10436526;28;20261;-68
2022/07/12 07:27:53;;;;;;;1.30;1.20;;;33.50;52.70;;;;;;10434852;28;20224;-69
2022/07/12 07:32:54;;;;;;;1.13;1.13;;;33.70;51.70;;;;;;10432758;28;20240;-68
2022/07/12 07:37:54;;;;;;;2.13;0.90;;;33.80;51.50;;;;;;10435230;28;20347;-67
2022/07/12 07:42:55;;;;;;;1.50;1.00;;;33.90;51.40;;;;;;10429875;28;20235;-68
2022/07/12 07:47:56;;;;;;;1.77;0.90;;;34.20;48.80;;;;;;10443592;28;20349;-68
2022/07/12 07:52:57;;;;;;;5.20;1.10;;;35.30;47.50;;;;;;10434837;28;20227;-68
2022/07/12 07:57:59;;;;;;;1.30;1.03;;;34.60;47.50;;;;;;10426881;28;20306;-69
2022/07/12 08:03:00;;;;;;;1.73;0.80;;;33.80;48.50;;;;;;10430799;28;20299;-69
2022/07/12 08:08:00;;;;;;;1.80;1.00;;;33.40;50.00;;;;;;10438053;28;20340;-68
2022/07/12 08:13:01;;;;;;;2.10;0.70;;;36.70;44.60;;;;;;10436560;28;20793;-68
2022/07/12 08:18:03;;;;;;;0.77;0.70;;;37.10;42.40;;;;;;10435196;28;20311;-68
2022/07/12 08:23:03;;;;;;;0.77;0.77;;;36.10;43.20;;;;;;10439282;28;20654;-68
2022/07/12 08:28:04;;;;;;;0.80;0.80;;;36.80;42.70;;;;;;10430159;28;20271;-69
2022/07/12 08:33:05;;;;;;;1.23;0.93;;;38.10;40.70;;;;;;10433221;28;20224;-69
2022/07/12 08:38:05;;;;;;;3.17;0.70;;;39.90;38.30;;;;;;10433758;28;20310;-68
2022/07/12 08:43:06;;;;;;;1.33;1.00;;;38.80;37.90;;;;;;10428189;28;20383;-68
2022/07/12 08:48:07;;;;;;;1.10;0.67;;;35.30;42.10;;;;;;10433335;28;20287;-68
2022/07/12 08:53:12;;;;;;;2.20;0.93;;;34.40;43.90;;;;;;10429083;28;20228;-69
2022/07/12 08:58:18;;;;;;;0.80;0.80;;;38.10;38.80;;;;;;10427475;28;20710;-68
2022/07/12 09:03:19;;;;;;;1.27;0.80;;;41.30;34.10;;;;;;10423353;28;20228;-68
2022/07/12 09:08:33;;;;;;;1.60;0.60;;;43.30;32.10;;;;;;10423931;28;20216;-68
2022/07/12 09:13:50;;;;;;;0.93;0.80;;;43.10;31.00;;;;;;10430739;28;20238;-70
2022/07/12 09:18:51;;;;;;;0.80;0.80;;;41.80;32.00;;;;;;10424135;28;20299;-69
2022/07/12 09:23:54;;;;;;;1.17;0.60;;;39.00;33.70;;;;;;10429301;28;20318;-68
2022/07/12 09:29:04;;;;;;;0.80;0.63;;;36.90;37.80;;;;;;10433488;28;20675;-68
2022/07/12 09:39:25;;;;;;;1.97;0.77;;;40.80;32.00;;;;;;10430074;28;20225;-68
2022/07/12 09:44:30;;;;;;;2.37;0.70;;;41.80;31.40;;;;;;10431289;28;20224;-68
2022/07/12 09:49:32;;;;;;;0.77;0.70;;;43.00;29.90;;;;;;10432745;28;20282;-70
2022/07/12 09:54:38;;;;;;;1.85;0.80;;;43.70;29.40;;;;;;10429257;28;20230;-68
2022/07/12 09:59:39;;;;;;;0.63;0.63;;;43.10;28.50;;;;;;10434591;28;20220;-69
2022/07/12 10:04:39;;;;;;;3.50;0.80;;;42.50;29.80;;;;;;10422514;28;20956;-69
2022/07/12 10:09:50;;;;;;;0.80;0.80;;;45.00;27.20;;;;;;10428491;28;20236;-68
2022/07/12 10:14:57;;;;;;;1.10;0.60;;;41.90;28.70;;;;;;10431611;28;20224;-68
2022/07/12 10:20:17;;;;;;;1.70;0.53;;;41.20;29.20;;;;;;10430228;28;20238;-68
2022/07/12 10:25:30;;;;;;;0.97;0.70;;;41.60;29.10;;;;;;10437963;28;20212;-68
2022/07/12 10:30:44;;;;;;;1.37;0.67;;;39.20;30.30;;;;;;10438462;28;20231;-69
2022/07/12 10:36:06;;;;;;;1.70;0.70;;;39.30;30.70;;;;;;10432088;28;20237;-69
2022/07/12 10:41:22;;;;;;;2.03;0.77;;;40.00;30.80;;;;;;10433594;28;20270;-68
2022/07/12 10:46:25;;;;;;;0.97;0.93;;;40.70;30.30;;;;;;10436652;28;20224;-70
2022/07/12 10:51:25;;;;;;;0.73;0.70;;;41.10;29.60;;;;;;10435588;28;20258;-68
2022/07/12 10:56:27;;;;;;;0.50;0.50;;;40.80;29.40;;;;;;10430551;28;20291;-68
2022/07/12 11:01:32;;;;;;;2.40;0.60;;;40.00;30.10;;;;;;10436899;28;20300;-68
2022/07/12 11:06:36;;;;;;;2.17;0.93;;;41.80;29.50;;;;;;10428244;28;20228;-69
2022/07/12 11:11:44;;;;;;;1.63;0.80;;;41.80;28.80;;;;;;10428655;28;20235;-68
2022/07/12 11:16:47;;;;;;;1.57;0.90;;;42.80;27.80;;;;;;10434852;28;20212;-68
2022/07/12 11:21:54;;;;;;;1.83;0.60;;;43.30;27.60;;;;;;10429424;28;20236;-68
2022/07/12 11:26:55;;;;;;;1.00;0.70;;;43.90;26.90;;;;;;10433837;28;20263;-69
2022/07/12 11:32:07;;;;;;;1.70;0.80;;;40.60;28.20;;;;;;10436762;28;20235;-70
2022/07/12 11:37:07;;;;;;;2.73;0.80;;;40.70;29.50;;;;;;10429581;28;20212;-70
2022/07/12 11:42:10;;;;;;;2.00;0.60;;;43.10;27.60;;;;;;10442620;28;20702;-69
2022/07/12 11:47:11;;;;;;;0.87;0.60;;;41.50;27.90;;;;;;10435208;28;20706;-69
2022/07/12 11:52:17;;;;;;;2.00;0.60;;;38.10;30.90;;;;;;10430356;28;20280;-68
2022/07/12 11:57:25;;;;;;;0.80;0.60;;;34.90;34.70;;;;;;10431901;28;20313;-68
2022/07/12 12:02:28;;;;;;;1.43;0.73;;;32.90;37.20;;;;;;10427735;28;20275;-69
2022/07/12 12:07:29;;;;;;;1.70;0.90;;;31.90;39.60;;;;;;10438907;28;20212;-68
2022/07/12 12:12:44;;;;;;;1.47;0.50;;;31.20;40.50;;;;;;10427868;28;20899;-68
2022/07/12 12:17:51;;;;;;;6.97;0.80;;;30.40;41.50;;;;;;10437892;28;20218;-69
2022/07/12 12:23:14;;;;;;;1.07;0.80;;;30.10;42.10;;;;;;10436569;28;20220;-68
2022/07/12 12:28:15;;;;;;;0.87;0.50;;;30.00;42.90;;;;;;10428553;28;20686;-69
2022/07/12 12:33:36;;;;;;;1.13;0.50;;;29.70;42.70;;;;;;10433504;28;20217;-68
2022/07/12 12:38:36;;;;;;;0.73;0.60;;;29.60;42.40;;;;;;10426149;28;20213;-68
2022/07/12 12:43:38;;;;;;;1.23;0.70;;;29.10;43.40;;;;;;10433815;28;20258;-69
2022/07/12 12:48:46;;;;;;;1.03;0.50;;;28.90;44.20;;;;;;10432891;28;20226;-68
2022/07/12 12:53:55;;;;;;;0.60;0.60;;;29.00;43.70;;;;;;10433237;28;20228;-68
2022/07/12 12:58:57;;;;;;;0.60;0.60;;;29.00;44.10;;;;;;10428131;28;20703;-67
2022/07/12 13:03:57;;;;;;;1.67;0.50;;;29.00;43.80;;;;;;10424168;28;20215;-68
2022/07/12 13:08:58;;;;;;;2.00;0.63;;;28.90;43.10;;;;;;10423762;28;20321;-68
2022/07/12 13:14:00;;;;;;;1.37;0.70;;;28.70;43.00;;;;;;10428498;28;20224;-68
2022/07/12 13:19:00;;;;;;;0.87;0.77;;;28.60;43.50;;;;;;10423805;28;20710;-68
2022/07/12 13:24:01;;;;;;;2.70;0.70;;;28.50;43.70;;;;;;10431525;28;20258;-67
2022/07/12 13:29:02;;;;;;;0.60;0.50;;;28.70;42.10;;;;;;10426579;28;20228;-69
2022/07/12 13:34:02;;;;;;;2.57;0.77;;;28.90;42.50;;;;;;10437367;28;20327;-68
2022/07/12 13:44:22;;;;;;;3.23;0.53;;;29.00;41.60;;;;;;10428729;28;20223;-68
2022/07/12 13:49:24;;;;;;;1.50;0.50;;;29.10;41.80;;;;;;10430760;28;20228;-68
2022/07/12 13:54:24;;;;;;;1.13;0.57;;;29.30;41.80;;;;;;10423541;28;20319;-69
2022/07/12 13:59:25;;;;;;;2.80;0.70;;;29.30;41.40;;;;;;10425931;28;20306;-68
2022/07/12 14:04:26;;;;;;;0.63;0.40;;;29.40;42.10;;;;;;10429425;28;20220;-68
2022/07/12 14:09:26;;;;;;;0.60;0.40;;;29.30;41.10;;;;;;10430538;28;20215;-68
2022/07/12 14:19:48;;;;;;;2.20;0.57;;;29.40;40.60;;;;;;10430965;28;20225;-68
2022/07/12 14:24:48;;;;;;;0.67;0.60;;;29.40;40.70;;;;;;10429674;28;20298;-68
2022/07/12 14:29:49;;;;;;;1.23;0.50;;;29.30;40.90;;;;;;10432372;28;20339;-69
2022/07/12 14:34:50;;;;;;;2.67;0.60;;;29.10;41.20;;;;;;10446110;28;20220;-69
2022/07/12 14:39:51;;;;;;;1.00;0.60;;;28.90;41.70;;;;;;10423568;28;20619;-68
2022/07/12 14:44:51;;;;;;;0.80;0.33;;;28.90;40.10;;;;;;10421939;28;20326;-67
2022/07/12 14:49:54;;;;;;;2.07;0.57;;;28.90;39.10;;;;;;10428298;28;20234;-68
2022/07/12 14:54:55;;;;;;;2.30;0.57;;;28.70;39.40;;;;;;10429007;28;20689;-68
2022/07/12 14:59:56;;;;;;;0.50;0.50;;;28.90;39.90;;;;;;10423852;28;20212;-67
2022/07/12 15:05:07;;;;;;;2.93;0.83;;;29.00;40.90;;;;;;10421782;28;20374;-67
2022/07/12 15:10:08;;;;;;;2.67;0.73;;;28.90;40.60;;;;;;10380898;28;20770;-67
2022/07/12 15:15:08;;;;;;;1.27;0.50;;;29.00;41.20;;;;;;10392310;28;20300;-68
2022/07/12 15:20:09;;;;;;;1.23;0.60;;;29.20;40.60;;;;;;10392193;28;20176;-68
2022/07/12 15:25:09;;;;;;;3.27;0.80;;;29.20;39.90;;;;;;10396031;28;20442;-68
2022/07/12 15:30:11;;;;;;;1.50;0.57;;;29.20;41.20;;;;;;10397922;28;20212;-68
2022/07/12 15:35:12;;;;;;;2.00;0.80;;;29.20;40.10;;;;;;10400455;28;20209;-69
2022/07/12 15:40:12;;;;;;;1.07;0.50;;;29.10;40.60;;;;;;10392325;28;20267;-68
2022/07/12 15:45:13;;;;;;;1.43;0.60;;;29.00;41.00;;;;;;10394904;28;20184;-68
2022/07/12 15:50:13;;;;;;;1.30;0.50;;;29.00;41.20;;;;;;10394935;28;20365;-69
2022/07/12 15:55:14;;;;;;;3.73;0.60;;;29.20;40.60;;;;;;10389720;28;20338;-68
2022/07/12 16:00:15;;;;;;;2.10;0.50;;;29.20;40.50;;;;;;10390981;28;20172;-69
2022/07/12 16:05:16;;;;;;;0.50;0.47;;;29.20;40.40;;;;;;10394407;28;20725;-68
2022/07/12 16:10:16;;;;;;;0.90;0.50;;;29.50;40.60;;;;;;10388435;28;20181;-67
2022/07/12 16:15:17;;;;;;;4.43;0.90;;;29.50;39.70;;;;;;10385289;28;20701;-68
2022/07/12 16:20:21;;;;;;;1.13;0.47;;;29.80;39.60;;;;;;10402707;28;20177;-69
2022/07/12 16:25:21;;;;;;;2.93;0.70;;;29.80;39.10;;;;;;10390938;28;20183;-68
2022/07/12 16:30:23;;;;;;;1.13;0.73;;;29.70;39.20;;;;;;10387208;28;20208;-69
2022/07/12 16:35:23;;;;;;;4.63;0.90;;;29.50;39.50;;;;;;10390916;28;20240;-68
2022/07/12 16:40:24;;;;;;;3.37;0.60;;;29.30;39.80;;;;;;10395635;28;20256;-68
2022/07/12 16:45:28;;;;;;;1.60;0.80;;;29.20;39.70;;;;;;10385986;28;20220;-68
2022/07/12 16:50:29;;;;;;;2.60;0.70;;;29.10;40.20;;;;;;10391135;28;20703;-68
2022/07/12 16:55:30;;;;;;;1.73;1.10;;;29.00;41.10;;;;;;10391968;28;20232;-69
2022/07/12 17:00:30;;;;;;;3.77;0.90;;;28.80;44.30;;;;;;10399045;28;20260;-70
2022/07/12 17:05:31;;;;;;;0.87;0.60;;;28.60;44.80;;;;;;10397947;28;20220;-68
2022/07/12 17:10:32;;;;;;;2.40;0.80;;;28.50;45.00;;;;;;10393559;28;20308;-69
2022/07/12 17:15:32;;;;;;;3.00;1.53;;;28.50;44.70;;;;;;10397858;28;20228;-68
2022/07/12 17:20:36;;;;;;;1.50;0.90;;;28.40;44.90;;;;;;10395844;28;20229;-69
2022/07/12 17:25:37;;;;;;;1.20;0.80;;;28.30;45.30;;;;;;10398144;28;20216;-70
2022/07/12 17:30:39;;;;;;;2.47;0.83;;;28.20;45.60;;;;;;10403695;28;20711;-69
2022/07/12 17:35:40;;;;;;;4.47;0.70;;;28.10;45.50;;;;;;10389483;28;20239;-69
2022/07/12 17:40:42;;;;;;;2.00;0.90;;;28.00;45.60;;;;;;10389554;28;20236;-69
2022/07/12 17:45:43;;;;;;;1.77;1.00;;;27.90;46.50;;;;;;10394852;28;20236;-69
2022/07/12 17:50:43;;;;;;;1.87;0.87;;;27.70;47.00;;;;;;10386827;28;20235;-68
2022/07/12 17:55:44;;;;;;;2.40;0.70;;;27.60;47.70;;;;;;10387878;28;20346;-69
2022/07/12 18:00:49;;;;;;;0.80;0.80;;;27.50;47.90;;;;;;10396929;28;20239;-69
2022/07/12 18:05:49;;;;;;;3.37;1.07;;;27.40;48.20;;;;;;10395697;28;20260;-69
2022/07/12 18:10:53;;;;;;;1.40;1.30;;;27.30;48.50;;;;;;10410140;28;20235;-69
2022/07/12 18:15:53;;;;;;;2.03;0.90;;;27.30;49.10;;;;;;10399183;28;20231;-69
2022/07/12 18:20:54;;;;;;;1.37;0.80;;;27.30;49.10;;;;;;10397688;28;20306;-69
2022/07/12 18:25:56;;;;;;;1.43;0.77;;;27.20;49.10;;;;;;10389021;28;20262;-71
2022/07/12 18:30:56;;;;;;;0.80;0.80;;;27.10;49.30;;;;;;10394946;28;20242;-69
2022/07/12 18:35:57;;;;;;;1.10;1.00;;;26.90;49.60;;;;;;10390352;28;20238;-68
2022/07/12 18:40:59;;;;;;;2.13;0.77;;;26.60;50.50;;;;;;10388189;28;20644;-69
2022/07/12 18:46:00;;;;;;;1.30;1.20;;;26.30;51.20;;;;;;10391662;28;20257;-69
2022/07/12 18:51:00;;;;;;;1.50;1.40;;;26.00;52.40;;;;;;10404109;28;20296;-69
2022/07/12 18:56:01;;;;;;;2.33;1.50;;;25.70;53.60;;;;;;10407371;28;20285;-69
2022/07/12 19:01:02;;;;;;;4.20;1.47;;;25.40;54.30;;;;;;10405972;28;20311;-69
2022/07/12 19:06:03;;;;;;;4.17;1.73;;;25.20;55.00;;;;;;10399377;28;20229;-69
2022/07/12 19:11:05;;;;;;;3.63;1.37;;;25.00;55.90;;;;;;10396820;28;20248;-69
2022/07/12 19:16:07;;;;;;;3.73;1.30;;;24.90;56.20;;;;;;10396705;28;20793;-70
2022/07/12 19:21:08;;;;;;;1.63;1.53;;;24.70;56.30;;;;;;10393813;28;20246;-69
2022/07/12 19:26:08;;;;;;;4.43;1.53;;;24.50;56.90;;;;;;10401108;28;20261;-70
2022/07/12 19:31:09;;;;;;;4.20;1.77;;;24.30;58.20;;;;;;10391889;28;20240;-69
2022/07/12 19:36:09;;;;;;;3.90;2.30;;;24.10;58.80;;;;;;10399123;28;20261;-68
2022/07/12 19:41:13;;;;;;;1.97;1.87;;;24.00;59.80;;;;;;10399448;28;20643;-69
2022/07/12 19:46:13;;;;;;;2.63;2.30;;;23.80;60.90;;;;;;10402024;28;20213;-68
2022/07/12 19:51:14;;;;;;;2.37;2.00;;;23.70;61.00;;;;;;10394339;28;20209;-70
2022/07/12 19:56:16;;;;;;;2.40;2.20;;;23.60;61.90;;;;;;10395392;28;20234;-69
2022/07/12 20:01:17;;;;;;;2.63;2.20;;;23.50;62.50;;;;;;10400258;28;20248;-69
2022/07/12 20:06:18;;;;;;;3.17;2.00;;;23.30;63.10;;;;;;10398161;28;21038;-70
2022/07/12 20:11:18;;;;;;;2.97;2.13;;;23.20;63.50;;;;;;10401169;28;20220;-69
2022/07/12 20:16:19;;;;;;;7.40;3.90;;;23.00;64.30;;;;;;10401164;28;20581;-70
2022/07/12 20:21:20;;;;;;;5.27;2.60;;;23.00;65.20;;;;;;10401595;28;20214;-71
2022/07/12 20:26:20;;;;;;;2.60;2.17;;;22.90;65.60;;;;;;10401124;28;20235;-68
2022/07/12 20:31:22;;;;;;;5.77;2.73;;;22.90;66.10;;;;;;10399687;28;20255;-68
2022/07/12 20:36:24;;;;;;;3.53;2.10;;;22.80;66.70;;;;;;10406226;28;20699;-70
2022/07/12 20:41:26;;;;;;;2.20;2.00;;;22.80;66.10;;;;;;10404369;28;20228;-69
2022/07/12 20:46:28;;;;;;;2.93;1.77;;;22.70;65.40;;;;;;10400114;28;20289;-70
2022/07/12 20:51:28;;;;;;;3.73;1.83;;;22.60;65.70;;;;;;10392701;28;20272;-69
2022/07/12 20:56:29;;;;;;;2.17;1.93;;;22.50;66.50;;;;;;10395825;28;20229;-68
2022/07/12 21:01:30;;;;;;;4.23;2.73;;;22.30;67.50;;;;;;10404625;28;20303;-69
2022/07/12 21:06:31;;;;;;;2.97;2.43;;;22.20;68.10;;;;;;10384148;28;20216;-68
2022/07/12 21:11:33;;;;;;;4.00;3.53;;;22.10;68.90;;;;;;10407258;28;20228;-69
2022/07/12 21:16:36;;;;;;;6.43;2.60;;;22.00;69.50;;;;;;10387675;28;20280;-69
2022/07/12 21:21:37;;;;;;;4.33;2.40;;;21.90;70.20;;;;;;10403385;28;20259;-69
2022/07/12 21:26:38;;;;;;;2.70;2.50;;;21.80;70.80;;;;;;10398923;28;20222;-69
2022/07/12 21:31:42;;;;;;;5.50;2.67;;;21.80;71.40;;;;;;10401713;28;20714;-69
2022/07/12 21:36:44;;;;;;;4.23;3.20;;;21.70;71.80;;;;;;10401112;28;20213;-70
2022/07/12 21:41:47;;;;;;;4.30;3.10;;;21.60;71.70;;;;;;10392849;28;20225;-70
2022/07/12 21:46:48;;;;;;;3.63;3.33;;;21.50;72.40;;;;;;10402094;28;20232;-70
2022/07/12 21:51:49;;;;;;;4.70;3.00;;;21.40;72.80;;;;;;10410916;28;20630;-70
2022/07/12 21:56:49;;;;;;;4.83;2.77;;;21.30;72.80;;;;;;10439649;28;20224;-70
2022/07/12 22:01:51;;;;;;;3.10;2.73;;;21.30;73.50;;;;;;10444770;28;20220;-69
2022/07/12 22:06:51;;;;;;;3.77;3.00;;;21.20;74.30;;;;;;10431643;28;20257;-68
2022/07/12 22:11:55;;;;;;;4.23;3.07;;;21.10;74.40;;;;;;10441778;28;20230;-71
2022/07/12 22:16:55;;;;;;;4.13;3.03;;;21.10;74.30;;;;;;10435569;28;20259;-70
2022/07/12 22:21:56;;;;;;;3.27;2.83;;;21.10;75.00;;;;;;10438567;28;20645;-70
2022/07/12 22:26:56;;;;;;;4.20;2.80;;;21.00;74.70;;;;;;10443443;28;20936;-69
2022/07/12 22:32:00;;;;;;;4.10;2.73;;;20.90;75.00;;;;;;10449544;28;20326;-69
2022/07/12 22:37:01;;;;;;;4.20;2.70;;;20.90;75.60;;;;;;10434227;28;20262;-69
2022/07/12 22:42:01;;;;;;;3.50;2.70;;;20.80;76.30;;;;;;10451156;28;20243;-69
2022/07/12 22:47:03;;;;;;;2.73;2.43;;;20.70;76.60;;;;;;10444611;28;20310;-69
2022/07/12 22:52:03;;;;;;;4.63;2.60;;;20.70;77.40;;;;;;10451765;28;20227;-69
2022/07/12 22:57:04;;;;;;;3.30;2.67;;;20.60;77.70;;;;;;10439721;28;20208;-69
2022/07/12 23:02:08;;;;;;;2.90;2.50;;;20.60;78.30;;;;;;10439717;28;20869;-68
2022/07/12 23:07:08;;;;;;;3.67;2.50;;;20.60;78.10;;;;;;10433753;28;20220;-68
2022/07/12 23:12:09;;;;;;;2.80;2.50;;;20.60;78.20;;;;;;10441854;28;20224;-69
2022/07/12 23:17:10;;;;;;;4.13;3.10;;;20.70;78.50;;;;;;10443237;28;20212;-71
2022/07/12 23:22:10;;;;;;;3.43;3.10;;;20.80;77.70;;;;;;10441333;28;20576;-68
2022/07/12 23:27:11;;;;;;;4.23;3.00;;;20.90;77.40;;;;;;10444901;28;20231;-69
2022/07/12 23:32:12;;;;;;;4.70;2.77;;;21.00;77.10;;;;;;10442787;28;20238;-68
2022/07/12 23:37:12;;;;;;;2.70;2.50;;;21.10;76.90;;;;;;10441483;28;20217;-69
2022/07/12 23:42:13;;;;;;;4.17;2.80;;;21.20;76.40;;;;;;10442780;28;20643;-68
2022/07/12 23:47:13;;;;;;;2.70;2.17;;;21.20;76.70;;;;;;10435452;28;20219;-67
2022/07/12 23:52:14;;;;;;;4.10;2.90;;;21.20;76.20;;;;;;10445517;28;20227;-70
2022/07/12 23:57:15;;;;;;;3.73;2.67;;;21.30;76.50;;;;;;10452864;28;20224;-70
